Flight Track Log - Related Links

Times and Time Zones

All times are in EDT time to prevent confusion due to time zone crossing. See the OPT329 flight status page for this flight to view local times or setup timezone preferences in your user account.

Time Position Orientation Groundspeed Altitude Reporting Facility
EDT Latitude Longitude Course Direction KTS MPH feet Rate Location/Type
Wed 04:31:24 PM 37.7214 -122.2467 348° North 169 194 1,600  Level Oakland Center
Wed 04:36:59 PM 38.1220 -122.3540 354° North 315 362 18,000 2,888 Climbing FlightAware ADS-B
Wed 04:37:40 PM 38.1850 -122.3620 354° North 322 371 19,700 2,286 Climbing FlightAware ADS-B
Wed 04:38:23 PM 38.2490 -122.3710 354° North 330 380 21,200 2,000 Climbing FlightAware ADS-B
Wed 04:39:07 PM 38.3180 -122.3800 354° North 339 390 22,600 1,714 Climbing FlightAware ADS-B
Wed 04:39:47 PM 38.3800 -122.3890 354° North 348 400 23,600 1,773 Climbing FlightAware ADS-B
Wed 04:42:47 PM 38.6770 -122.4190 355° North 366 421 29,100 1,757 Climbing FlightAware ADS-B
Wed 04:43:29 PM 38.7480 -122.4250 356° North 376 433 30,100 1,465 Climbing FlightAware ADS-B
Wed 04:44:13 PM 38.8250 -122.4320 356° North 385 443 31,200 1,535 Climbing FlightAware ADS-B
Wed 04:44:55 PM 38.9010 -122.4390 356° North 390 449 32,300 1,469 Climbing FlightAware ADS-B
Wed 04:45:51 PM 39.0020 -122.4480 356° North 395 455 33,600 1,277 Climbing FlightAware ADS-B
Wed 04:46:29 PM 39.0730 -122.4540 356° North 401 461 34,300 1,256 Climbing FlightAware ADS-B
Wed 04:47:17 PM 39.1620 -122.4630 356° North 403 464 35,400 1,364 Climbing FlightAware ADS-B
Wed 04:47:57 PM 39.2360 -122.4690 356° North 399 459 36,300 1,425 Climbing FlightAware ADS-B
Wed 04:48:37 PM 39.3100 -122.4760 356° North 394 453 37,300 1,465 Climbing FlightAware ADS-B
Wed 04:49:23 PM 39.3920 -122.4830 356° North 384 442 38,400 1,289 Climbing FlightAware ADS-B
Wed 04:50:38 PM 39.5270 -122.4960 356° North 384 442 39,900 1,120 Climbing FlightAware ADS-B
Wed 04:51:53 PM 39.6640 -122.5080 356° North 385 443 41,200 991 Climbing FlightAware ADS-B
Wed 04:52:33 PM 39.7360 -122.5150 356° North 384 442 41,800 988 Climbing FlightAware ADS-B
Wed 04:53:18 PM 39.8180 -122.5230 356° North 389 448 42,600 847 Climbing FlightAware ADS-B
Wed 04:53:58 PM 39.8890 -122.5290 356° North 384 442 43,000 282 Climbing FlightAware ADS-B
Wed 04:54:43 PM 39.9700 -122.5370 356° North 391 450 43,000  Level FlightAware ADS-B
Wed 04:55:23 PM 40.0450 -122.5440 356° North 404 465 43,000  Level FlightAware ADS-B
Wed 04:56:08 PM 40.1300 -122.5520 356° North 403 464 43,000  Level FlightAware ADS-B
Wed 04:56:48 PM 40.2070 -122.5590 356° North 416 479 43,000  Level FlightAware ADS-B
Wed 04:57:28 PM 40.2830 -122.5660 356° North 416 479 43,000  Level FlightAware ADS-B
Wed 04:58:14 PM 40.3700 -122.5750 355° North 405 466 43,000  Level FlightAware ADS-B
Wed 04:58:53 PM 40.4440 -122.5820 356° North 404 465 43,000  Level FlightAware ADS-B
Wed 04:59:33 PM 40.5180 -122.5890 356° North 403 464 43,000  Level FlightAware ADS-B
Wed 05:00:13 PM 40.5970 -122.5960 356° North 402 463 43,000  Level FlightAware ADS-B
Wed 05:00:54 PM 40.6740 -122.6040 355° North 401 461 43,000  Level FlightAware ADS-B
Wed 05:01:39 PM 40.7610 -122.6120 356° North 401 461 43,000  Level FlightAware ADS-B
Wed 05:02:24 PM 40.8460 -122.6200 356° North 401 461 43,000  Level FlightAware ADS-B
Wed 05:03:05 PM 40.9220 -122.6270 356° North 401 461 43,000  Level FlightAware ADS-B
Wed 05:03:49 PM 41.0060 -122.6350 356° North 401 461 43,000  Level FlightAware ADS-B
Wed 05:04:29 PM 41.0800 -122.6420 356° North 407 468 43,000  Level FlightAware ADS-B
Wed 05:04:54 PM 41.1250 -122.6470 355° North 407 468 43,000  Level FlightAware ADS-B
Wed 05:05:39 PM 41.2040 -122.6540 356° North 400 460 43,000  Level FlightAware ADS-B
Wed 05:06:24 PM 41.2920 -122.6630 356° North 406 467 43,000  Level FlightAware ADS-B
Wed 05:07:11 PM 41.3690 -122.6710 356° North 405 466 43,000  Level FlightAware ADS-B
Wed 05:08:01 PM 41.4660 -122.6810 356° North 406 467 43,000  Level FlightAware ADS-B
Wed 05:08:40 PM 41.5480 -122.6880 356° North 406 467 43,000  Level FlightAware ADS-B
Wed 05:09:22 PM 41.6290 -122.6960 356° North 407 468 43,000  Level FlightAware ADS-B
Wed 05:10:04 PM 41.7080 -122.7040 356° North 409 471 43,000  Level FlightAware ADS-B
Wed 05:11:03 PM 41.8180 -122.7150 356° North 413 475 43,000  Level FlightAware ADS-B
Wed 05:12:13 PM 41.9440 -122.7270 356° North 418 481 43,000  Level FlightAware ADS-B
Wed 05:12:54 PM 42.0300 -122.7360 356° North 419 482 43,000  Level FlightAware ADS-B
Wed 05:13:30 PM 42.1020 -122.7430 356° North 421 484 43,000  Level FlightAware ADS-B
Wed 05:14:18 PM 42.1940 -122.7520 356° North 421 484 43,000  Level FlightAware ADS-B
Wed 05:14:53 PM 42.2620 -122.7590 356° North 421 484 43,000  Level FlightAware ADS-B
Wed 05:17:31 PM 42.5460 -122.7870 356° North 424 488 43,000  Level FlightAware ADS-B
Wed 05:18:10 PM 42.6450 -122.7970 356° North 423 487 43,000  Level FlightAware ADS-B
Wed 05:18:52 PM 42.7290 -122.8060 355° North 424 488 43,000  Level FlightAware ADS-B
Wed 05:19:34 PM 42.8120 -122.8140 356° North 426 490 43,000  Level FlightAware ADS-B
Wed 05:20:29 PM 42.9200 -122.8250 356° North 426 490 43,000  Level FlightAware ADS-B
Wed 05:21:23 PM 43.0250 -122.8360 356° North 425 489 43,000  Level FlightAware ADS-B
Wed 05:22:05 PM 43.1080 -122.8450 355° North 425 489 43,000  Level FlightAware ADS-B
Wed 05:22:49 PM 43.1960 -122.8540 356° North 424 488 43,000  Level FlightAware ADS-B
Wed 05:23:34 PM 43.2850 -122.8510 North 437 503 43,000  Level FlightAware ADS-B
Wed 05:24:10 PM 43.3570 -122.8430 North 436 502 43,000  Level FlightAware ADS-B
Wed 05:24:52 PM 43.4420 -122.8330 North 437 503 43,000  Level FlightAware ADS-B
Wed 05:25:48 PM 43.5520 -122.8210 North 438 504 43,000  Level FlightAware ADS-B
Wed 05:26:36 PM 43.6520 -122.8090 North 437 503 43,000  Level FlightAware ADS-B
Wed 05:27:20 PM 43.7450 -122.7990 North 437 503 43,000  Level FlightAware ADS-B
Wed 05:28:02 PM 43.8250 -122.7890 North 436 502 43,000  Level FlightAware ADS-B
Wed 05:28:42 PM 43.9070 -122.7800 North 436 502 43,000  Level FlightAware ADS-B
Wed 05:29:24 PM 43.9940 -122.7700 North 435 501 43,000  Level FlightAware ADS-B
Wed 05:30:18 PM 44.1030 -122.7570 North 433 498 43,000  Level FlightAware ADS-B
Wed 05:31:04 PM 44.1930 -122.7460 North 432 497 43,000  Level FlightAware ADS-B
Wed 05:31:46 PM 44.2780 -122.7360 North 430 495 43,000  Level FlightAware ADS-B
Wed 05:32:22 PM 44.3490 -122.7280 North 429 494 43,000  Level FlightAware ADS-B
Wed 05:33:08 PM 44.4400 -122.7170 North 427 491 43,000  Level FlightAware ADS-B
Wed 05:33:34 PM 44.4912 -122.7110 North 428 493 43,000  Level FlightAware ADS-B
Wed 05:34:08 PM 44.5598 -122.7030 North 428 493 43,000  Level FlightAware ADS-B
Wed 05:34:46 PM 44.6343 -122.6940 North 428 493 43,000  Level FlightAware ADS-B
Wed 05:35:50 PM 44.7597 -122.6790 North 429 494 43,000  Level FlightAware ADS-B
Wed 05:36:20 PM 44.8192 -122.6720 North 429 494 43,000  Level FlightAware ADS-B
Wed 05:37:18 PM 44.9335 -122.6580 North 430 495 43,000  Level FlightAware ADS-B
Wed 05:38:02 PM 45.0160 -122.6480 North 432 497 43,000  Level FlightAware ADS-B
Wed 05:38:34 PM 45.0862 -122.6400 North 434 499 43,000  Level FlightAware ADS-B
Wed 05:39:06 PM 45.1496 -122.6320 North 436 502 43,000  Level FlightAware ADS-B
Wed 05:39:36 PM 45.2097 -122.6250 North 437 503 43,000  Level FlightAware ADS-B
Wed 05:40:08 PM 45.2735 -122.6170 North 439 505 43,000  Level FlightAware ADS-B
Wed 05:40:38 PM 45.3352 -122.6090 North 439 505 43,000  Level FlightAware ADS-B
Wed 05:41:18 PM 45.4162 -122.6000 North 439 505 43,000  Level FlightAware ADS-B
Wed 05:41:49 PM 45.4774 -122.5920 North 439 505 43,000  Level FlightAware ADS-B
Wed 05:42:21 PM 45.5419 -122.5840 North 439 505 43,000  Level FlightAware ADS-B
Wed 05:42:51 PM 45.6029 -122.5770 North 439 505 43,000  Level FlightAware ADS-B
Wed 05:43:22 PM 45.6656 -122.5690 North 439 505 43,000  Level FlightAware ADS-B
Wed 05:43:52 PM 45.7263 -122.5610 North 438 504 43,000  Level FlightAware ADS-B
Wed 05:44:22 PM 45.7875 -122.5540 North 437 503 43,000  Level FlightAware ADS-B
Wed 05:44:52 PM 45.8483 -122.5460 North 438 504 43,000  Level FlightAware ADS-B
Wed 05:45:23 PM 45.9090 -122.5390 North 438 504 43,000  Level FlightAware ADS-B
Wed 05:45:53 PM 45.9695 -122.5310 North 439 505 43,000  Level FlightAware ADS-B
Wed 05:46:23 PM 46.0310 -122.5230 North 438 504 43,000  Level FlightAware ADS-B
Wed 05:46:53 PM 46.0915 -122.5160 North 438 504 43,000  Level FlightAware ADS-B
Wed 05:48:00 PM 46.2273 -122.4990 North 438 504 43,000  Level FlightAware ADS-B
Wed 05:48:40 PM 46.3071 -122.4880 North 438 504 43,000  Level FlightAware ADS-B
Wed 05:49:10 PM 46.3677 -122.4810 North 438 504 43,000  Level FlightAware ADS-B
Wed 05:49:40 PM 46.4285 -122.4730 North 437 503 43,000  Level FlightAware ADS-B
Wed 05:50:11 PM 46.4895 -122.4650 North 437 503 43,000  Level FlightAware ADS-B
Wed 05:50:41 PM 46.5507 -122.4570 North 437 503 43,000  Level FlightAware ADS-B
Wed 05:51:12 PM 46.6128 -122.4500 North 437 503 43,000  Level FlightAware ADS-B
Wed 05:51:43 PM 46.6752 -122.4420 North 438 504 43,000  Level FlightAware ADS-B
Wed 05:52:13 PM 46.7361 -122.4340 North 438 504 43,000  Level FlightAware ADS-B
Wed 05:52:44 PM 46.7984 -122.4260 North 438 504 43,000  Level FlightAware ADS-B
Wed 05:53:16 PM 46.8621 -122.4170 North 438 504 43,000  Level FlightAware ADS-B
Wed 05:53:46 PM 46.9235 -122.4100 North 439 505 43,000  Level FlightAware ADS-B
Wed 05:53:58 PM 46.9479 -122.4050 North 442 509 43,000  Level FlightAware ADS-B
Wed 05:54:04 PM 46.9606 -122.4010 12° North 445 512 43,000  Level FlightAware ADS-B
Wed 05:54:35 PM 47.0205 -122.3750 16° North 448 516 43,000  Level FlightAware ADS-B
Wed 05:55:05 PM 47.0804 -122.3460 18° North 444 511 43,000  Level FlightAware ADS-B
Wed 05:55:35 PM 47.1384 -122.3180 18° North 439 505 43,000  Level FlightAware ADS-B
Wed 05:56:07 PM 47.1996 -122.2890 18° North 434 499 43,000  Level FlightAware ADS-B
Wed 05:56:38 PM 47.2577 -122.2610 18° North 430 495 43,000  Level FlightAware ADS-B
Wed 05:57:08 PM 47.3148 -122.2340 18° North 426 490 43,000 -590 Level FlightAware ADS-B
Wed 05:57:39 PM 47.3724 -122.2060 18° North 438 504 42,400 -2,036 Descending FlightAware ADS-B
Wed 05:58:04 PM 47.4232 -122.1800 19° North 456 525 41,100 -3,000 Descending FlightAware ADS-B
Wed 05:58:13 PM 47.4398 -122.1730 16° North 454 522 40,700 -2,824 Descending FlightAware ADS-B
Wed 05:58:21 PM 47.4572 -122.1680 11° North 451 519 40,300 -2,800 Descending FlightAware ADS-B
Wed 05:58:28 PM 47.4705 -122.1660 North 448 516 40,000 -2,667 Descending FlightAware ADS-B
Wed 05:58:39 PM 47.4933 -122.1650 North 444 511 39,500 -3,000 Descending FlightAware ADS-B
Wed 05:58:48 PM 47.5125 -122.1660 358° North 441 507 39,000 -2,308 Descending FlightAware ADS-B
Wed 05:59:18 PM 47.5720 -122.1820 350° North 432 497 38,000 -2,459 Descending FlightAware ADS-B
Wed 05:59:49 PM 47.6322 -122.1990 349° North 435 501 36,500 -2,903 Descending FlightAware ADS-B
Wed 06:00:20 PM 47.6929 -122.2160 349° North 431 496 35,000 -2,852 Descending FlightAware ADS-B
Wed 06:00:50 PM 47.7515 -122.2320 350° North 429 494 33,600 -2,900 Descending FlightAware ADS-B
Wed 06:01:20 PM 47.8105 -122.2490 349° North 425 489 32,100 -2,700 Descending FlightAware ADS-B
Wed 06:01:50 PM 47.8679 -122.2650 349° North 417 480 30,900 -2,500 Descending FlightAware ADS-B
Wed 06:02:20 PM 47.9250 -122.2810 349° North 409 471 29,600 -2,585 Descending FlightAware ADS-B
Wed 06:02:55 PM 47.9893 -122.3000 349° North 400 460 28,100 -2,418 Descending FlightAware ADS-B
Wed 06:03:27 PM 48.0467 -122.3160 349° North 392 451 26,900 -2,286 Descending FlightAware ADS-B
Wed 06:03:58 PM 48.1007 -122.3320 349° North 388 447 25,700 -2,361 Descending FlightAware ADS-B
Wed 06:04:28 PM 48.1541 -122.3470 349° North 384 442 24,500 -2,400 Descending FlightAware ADS-B
Wed 06:04:58 PM 48.2064 -122.3620 349° North 379 436 23,300 -2,262 Descending FlightAware ADS-B
Wed 06:05:29 PM 48.2574 -122.3770 349° North 368 423 22,200 -2,262 Descending FlightAware ADS-B
Wed 06:05:59 PM 48.3076 -122.3910 349° North 360 414 21,000 -2,276 Descending FlightAware ADS-B
Wed 06:06:27 PM 48.3531 -122.4050 348° North 357 411 20,000 -2,172 Descending FlightAware ADS-B
Wed 06:06:57 PM 48.4016 -122.4190 349° North 349 402 18,900 -2,164 Descending FlightAware ADS-B
Wed 06:07:28 PM 48.4509 -122.4330 349° North 344 396 17,800 -2,137 Descending FlightAware ADS-B
Wed 06:08:10 PM 48.5153 -122.4520 349° North 334 384 16,300 -2,074 Descending FlightAware ADS-B
Wed 06:08:49 PM 48.5736 -122.4690 349° North 329 379 15,000 -1,944 Descending FlightAware ADS-B
Wed 06:09:21 PM 48.6217 -122.4830 349° North 334 384 14,000 -1,912 Descending FlightAware ADS-B
Wed 06:10:20 PM 48.7070 -122.5150 346° North 307 353 12,100 -1,631 Descending FlightAware ADS-B
Wed 06:11:04 PM 48.7500 -122.5770 316° Northwest 296 341 11,200 -1,310 Descending FlightAware ADS-B
Wed 06:11:47 PM 48.7900 -122.6460 311° West 304 350 10,200 -1,309 Descending FlightAware ADS-B
Wed 06:11:59 PM 48.8010 -122.6650 311° West 301 346 10,000 -480 Descending FlightAware ADS-B
Wed 06:12:12 PM 48.8128 -122.6850 312° West 298 343 10,000  Level FlightAware ADS-B
Wed 06:12:30 PM 48.8289 -122.7130 311° West 294 338 10,000  Level FlightAware ADS-B
Wed 06:12:52 PM 48.8491 -122.7480 311° West 297 342 10,000  Level FlightAware ADS-B
Wed 06:13:11 PM 48.8660 -122.7780 311° West 297 342 10,000  Level FlightAware ADS-B
Wed 06:13:33 PM 48.8860 -122.8130 311° West 297 342 10,000  Level FlightAware ADS-B
Wed 06:14:17 PM 48.9250 -122.8820 311° West 297 342 10,000  Level FlightAware ADS-B
Wed 06:14:34 PM 48.9417 -122.9100 312° West 298 343 10,000  Level FlightAware ADS-B
Wed 06:14:51 PM 48.9571 -122.9370 311° West 298 343 10,000  Level FlightAware ADS-B
Wed 06:15:08 PM 48.9716 -122.9630 310° West 298 343 10,000  Level FlightAware ADS-B
Wed 06:15:25 PM 48.9876 -122.9910 311° West 300 345 10,000  Level FlightAware ADS-B
Wed 06:15:52 PM 49.0121 -123.0340 311° West 300 345 10,000  Level FlightAware ADS-B
Wed 06:16:09 PM 49.0272 -123.0610 310° West 300 345 10,000 -529 Level FlightAware ADS-B
Wed 06:16:26 PM 49.0427 -123.0880 311° West 304 350 9,700 -1,672 Descending FlightAware ADS-B
Wed 06:17:10 PM 49.0780 -123.1580 308° West 277 319 8,300 -1,826 Descending FlightAware ADS-B
Wed 06:17:35 PM 49.0860 -123.2050 285° West 259 298 7,600 -2,069 Descending FlightAware ADS-B
Wed 06:18:08 PM 49.0970 -123.2600 287° West 258 297 6,300 -2,700 Descending FlightAware ADS-B
Wed 06:18:35 PM 49.1050 -123.3070 285° West 232 267 4,900 -2,930 Descending FlightAware ADS-B
Wed 06:18:51 PM 49.1090 -123.3320 284° West 229 264 4,200 -2,308 Descending FlightAware ADS-B
Wed 06:19:01 PM 49.1120 -123.3480 286° West 230 265 3,900 -1,756 Descending FlightAware ADS-B
Wed 06:19:32 PM 49.1210 -123.3960 286° West 225 259 3,000 -1,304 Descending FlightAware ADS-B
Wed 06:19:47 PM 49.1310 -123.4130 312° West 215 247 2,900 -261 Descending FlightAware ADS-B
Wed 06:19:55 PM 49.1380 -123.4150 349° North 209 241 2,900 214 Level FlightAware ADS-B
Wed 06:20:15 PM 49.1540 -123.4010 30° Northeast 195 224 3,000 -600 Climbing FlightAware ADS-B
Wed 06:20:45 PM 49.1660 -123.3630 64° Northeast 204 235 2,400 -1,143 Descending FlightAware ADS-B
Wed 06:20:57 PM 49.1720 -123.3510 53° Northeast 200 230 2,200 -857 Descending FlightAware ADS-B
Wed 06:21:13 PM 49.1820 -123.3340 48° Northeast 169 194 2,000 -300 Descending FlightAware ADS-B
Wed 06:21:37 PM 49.1940 -123.3150 46° Northeast 147 169 2,000 -150 Level FlightAware ADS-B
Wed 06:21:53 PM 49.1990 -123.3000 63° Northeast 141 162 1,900 -1,091 Descending FlightAware ADS-B
Wed 06:22:21 PM 49.1970 -123.2740 97° East 134 154 1,200 -1,364 Descending FlightAware ADS-B
Wed 06:22:37 PM 49.1960 -123.2590 96° East 129 148 900 -1,105 Descending FlightAware ADS-B
Wed 06:22:59 PM 49.1940 -123.2410 100° East 123 142 500 -792 Descending FlightAware ADS-B
Wed 06:23:30 PM 49.1910 -123.2170 101° East 114 131 200 -581 Descending FlightAware ADS-B
Wed 06:23:59 PM 49.1880 -123.1930 101° East 80 92 -414 Descending FlightAware ADS-B
Wed 06:24:29 PM 49.1870 -123.1840 100° East 43 49  Level FlightAware ADS-B
Wed 06:24:35 PM 49.1870 -123.1810 90° East 31 36  Level FlightAware ADS-B
Wed 06:24:53 PM 49.1860 -123.1800 147° Southeast 7 8  Level FlightAware ADS-B
Wed 06:25:16 PM 49.1850 -123.1790 147° Southeast 11 13  Level FlightAware ADS-B
Wed 06:25:34 PM 49.1850 -123.1780 90° East 14 16  Level FlightAware ADS-B
Wed 06:26:28 PM 49.1830 -123.1730 121° Southeast 18 21  Level FlightAware ADS-B

Login

Don't have an account? Register now (free) for customized features, flight alerts, and more!